sensor_id;sensor_type;location;lat;lon;timestamp;P1;durP1;ratioP1;P2;durP2;ratioP2
71947;SDS011;63257;55.082;38.772;2022-12-24T00:00:15;27.60;;;11.47;;
71947;SDS011;63257;55.082;38.772;2022-12-24T00:02:40;25.48;;;10.43;;
71947;SDS011;63257;55.082;38.772;2022-12-24T00:05:07;26.83;;;11.80;;
71947;SDS011;63257;55.082;38.772;2022-12-24T00:07:34;27.27;;;11.38;;
71947;SDS011;63257;55.082;38.772;2022-12-24T00:10:00;25.67;;;11.63;;
71947;SDS011;63257;55.082;38.772;2022-12-24T00:12:25;24.47;;;11.40;;
71947;SDS011;63257;55.082;38.772;2022-12-24T00:14:51;26.58;;;10.80;;
71947;SDS011;63257;55.082;38.772;2022-12-24T00:17:17;30.27;;;11.47;;
71947;SDS011;63257;55.082;38.772;2022-12-24T00:19:43;29.17;;;12.75;;
71947;SDS011;63257;55.082;38.772;2022-12-24T00:22:09;29.30;;;13.00;;
71947;SDS011;63257;55.082;38.772;2022-12-24T00:24:35;24.95;;;11.73;;
71947;SDS011;63257;55.082;38.772;2022-12-24T00:27:01;30.27;;;12.13;;
71947;SDS011;63257;55.082;38.772;2022-12-24T00:29:28;26.73;;;11.70;;
71947;SDS011;63257;55.082;38.772;2022-12-24T00:31:54;28.52;;;11.32;;
71947;SDS011;63257;55.082;38.772;2022-12-24T00:34:21;28.30;;;10.95;;
71947;SDS011;63257;55.082;38.772;2022-12-24T00:36:48;27.60;;;11.23;;
71947;SDS011;63257;55.082;38.772;2022-12-24T00:39:14;27.27;;;11.20;;
71947;SDS011;63257;55.082;38.772;2022-12-24T00:41:40;32.78;;;13.10;;
71947;SDS011;63257;55.082;38.772;2022-12-24T00:44:06;27.53;;;11.23;;
71947;SDS011;63257;55.082;38.772;2022-12-24T00:46:34;27.55;;;12.05;;
71947;SDS011;63257;55.082;38.772;2022-12-24T00:49:02;30.92;;;12.63;;
71947;SDS011;63257;55.082;38.772;2022-12-24T00:51:29;26.37;;;11.57;;
71947;SDS011;63257;55.082;38.772;2022-12-24T00:53:55;31.02;;;12.40;;
71947;SDS011;63257;55.082;38.772;2022-12-24T00:56:21;31.85;;;13.73;;
71947;SDS011;63257;55.082;38.772;2022-12-24T00:58:48;32.93;;;12.93;;
71947;SDS011;63257;55.082;38.772;2022-12-24T01:01:14;34.38;;;13.73;;
71947;SDS011;63257;55.082;38.772;2022-12-24T01:03:41;31.02;;;12.55;;
71947;SDS011;63257;55.082;38.772;2022-12-24T01:06:08;25.47;;;11.57;;
71947;SDS011;63257;55.082;38.772;2022-12-24T01:08:36;29.40;;;11.93;;
71947;SDS011;63257;55.082;38.772;2022-12-24T01:11:06;29.60;;;12.90;;
71947;SDS011;63257;55.082;38.772;2022-12-24T01:13:34;30.85;;;12.35;;
71947;SDS011;63257;55.082;38.772;2022-12-24T01:16:02;26.20;;;10.88;;
71947;SDS011;63257;55.082;38.772;2022-12-24T01:18:37;30.05;;;12.60;;
71947;SDS011;63257;55.082;38.772;2022-12-24T01:21:03;31.58;;;12.55;;
71947;SDS011;63257;55.082;38.772;2022-12-24T01:23:29;33.07;;;12.60;;
71947;SDS011;63257;55.082;38.772;2022-12-24T01:25:59;32.08;;;12.13;;
71947;SDS011;63257;55.082;38.772;2022-12-24T01:28:26;31.30;;;13.52;;
71947;SDS011;63257;55.082;38.772;2022-12-24T01:30:52;35.00;;;13.97;;
71947;SDS011;63257;55.082;38.772;2022-12-24T01:33:18;33.38;;;13.60;;
71947;SDS011;63257;55.082;38.772;2022-12-24T01:35:44;33.73;;;13.10;;
71947;SDS011;63257;55.082;38.772;2022-12-24T01:38:11;31.75;;;13.13;;
71947;SDS011;63257;55.082;38.772;2022-12-24T01:40:37;30.13;;;11.93;;
71947;SDS011;63257;55.082;38.772;2022-12-24T01:43:24;32.13;;;13.87;;
71947;SDS011;63257;55.082;38.772;2022-12-24T01:53:43;30.77;;;13.02;;
71947;SDS011;63257;55.082;38.772;2022-12-24T01:56:12;31.52;;;12.85;;
71947;SDS011;63257;55.082;38.772;2022-12-24T01:58:40;32.72;;;12.75;;
71947;SDS011;63257;55.082;38.772;2022-12-24T02:01:10;32.17;;;11.63;;
71947;SDS011;63257;55.082;38.772;2022-12-24T02:03:36;28.52;;;12.25;;
71947;SDS011;63257;55.082;38.772;2022-12-24T02:06:02;33.47;;;13.27;;
71947;SDS011;63257;55.082;38.772;2022-12-24T02:08:28;32.67;;;12.68;;
71947;SDS011;63257;55.082;38.772;2022-12-24T02:11:11;31.55;;;12.80;;
71947;SDS011;63257;55.082;38.772;2022-12-24T02:13:38;33.85;;;13.52;;
71947;SDS011;63257;55.082;38.772;2022-12-24T02:27:25;34.42;;;13.02;;
71947;SDS011;63257;55.082;38.772;2022-12-24T02:37:49;29.33;;;11.80;;
71947;SDS011;63257;55.082;38.772;2022-12-24T02:40:24;35.33;;;13.50;;
71947;SDS011;63257;55.082;38.772;2022-12-24T02:43:00;34.10;;;13.38;;
71947;SDS011;63257;55.082;38.772;2022-12-24T02:45:31;34.42;;;13.55;;
71947;SDS011;63257;55.082;38.772;2022-12-24T02:48:00;32.15;;;13.73;;
71947;SDS011;63257;55.082;38.772;2022-12-24T02:50:26;33.47;;;13.53;;
71947;SDS011;63257;55.082;38.772;2022-12-24T02:52:52;32.60;;;13.20;;
71947;SDS011;63257;55.082;38.772;2022-12-24T03:03:54;29.45;;;12.50;;
71947;SDS011;63257;55.082;38.772;2022-12-24T03:07:05;30.65;;;12.52;;
71947;SDS011;63257;55.082;38.772;2022-12-24T03:12:33;31.23;;;12.07;;
71947;SDS011;63257;55.082;38.772;2022-12-24T03:15:06;28.90;;;12.45;;
71947;SDS011;63257;55.082;38.772;2022-12-24T03:17:34;30.40;;;11.63;;
71947;SDS011;63257;55.082;38.772;2022-12-24T03:20:03;30.40;;;12.80;;
71947;SDS011;63257;55.082;38.772;2022-12-24T03:22:31;27.00;;;11.75;;
71947;SDS011;63257;55.082;38.772;2022-12-24T03:24:59;31.03;;;12.17;;
71947;SDS011;63257;55.082;38.772;2022-12-24T03:27:28;30.13;;;11.93;;
71947;SDS011;63257;55.082;38.772;2022-12-24T03:29:57;29.23;;;12.05;;
71947;SDS011;63257;55.082;38.772;2022-12-24T03:32:24;31.05;;;12.43;;
71947;SDS011;63257;55.082;38.772;2022-12-24T03:34:54;29.52;;;12.32;;
71947;SDS011;63257;55.082;38.772;2022-12-24T03:37:22;27.95;;;12.45;;
71947;SDS011;63257;55.082;38.772;2022-12-24T03:39:48;31.70;;;12.73;;
71947;SDS011;63257;55.082;38.772;2022-12-24T03:42:14;29.20;;;12.17;;
71947;SDS011;63257;55.082;38.772;2022-12-24T03:44:40;33.65;;;13.52;;
71947;SDS011;63257;55.082;38.772;2022-12-24T03:47:05;33.47;;;12.90;;
71947;SDS011;63257;55.082;38.772;2022-12-24T03:49:31;29.40;;;12.43;;
71947;SDS011;63257;55.082;38.772;2022-12-24T03:51:57;32.73;;;12.57;;
71947;SDS011;63257;55.082;38.772;2022-12-24T03:54:23;33.53;;;13.02;;
71947;SDS011;63257;55.082;38.772;2022-12-24T03:56:49;29.17;;;12.67;;
71947;SDS011;63257;55.082;38.772;2022-12-24T03:59:15;33.05;;;11.73;;
71947;SDS011;63257;55.082;38.772;2022-12-24T04:01:41;30.63;;;11.95;;
71947;SDS011;63257;55.082;38.772;2022-12-24T04:04:07;30.37;;;11.73;;
71947;SDS011;63257;55.082;38.772;2022-12-24T04:06:33;30.60;;;11.73;;
71947;SDS011;63257;55.082;38.772;2022-12-24T04:08:59;29.52;;;12.60;;
71947;SDS011;63257;55.082;38.772;2022-12-24T04:11:29;29.58;;;11.63;;
71947;SDS011;63257;55.082;38.772;2022-12-24T04:13:57;29.63;;;12.52;;
71947;SDS011;63257;55.082;38.772;2022-12-24T04:16:24;28.92;;;11.57;;
71947;SDS011;63257;55.082;38.772;2022-12-24T04:18:50;29.63;;;12.33;;
71947;SDS011;63257;55.082;38.772;2022-12-24T04:21:16;28.95;;;12.02;;
71947;SDS011;63257;55.082;38.772;2022-12-24T04:23:41;26.73;;;11.70;;
71947;SDS011;63257;55.082;38.772;2022-12-24T04:26:09;28.60;;;12.02;;
71947;SDS011;63257;55.082;38.772;2022-12-24T04:28:36;28.70;;;11.98;;
71947;SDS011;63257;55.082;38.772;2022-12-24T04:31:07;27.33;;;11.87;;
71947;SDS011;63257;55.082;38.772;2022-12-24T04:33:36;30.92;;;11.88;;
71947;SDS011;63257;55.082;38.772;2022-12-24T04:36:03;28.92;;;11.95;;
71947;SDS011;63257;55.082;38.772;2022-12-24T04:38:32;29.17;;;11.90;;
71947;SDS011;63257;55.082;38.772;2022-12-24T04:41:06;30.35;;;11.65;;
71947;SDS011;63257;55.082;38.772;2022-12-24T04:43:35;33.50;;;11.98;;
71947;SDS011;63257;55.082;38.772;2022-12-24T04:46:43;31.03;;;12.07;;
71947;SDS011;63257;55.082;38.772;2022-12-24T04:48:52;31.65;;;12.00;;
71947;SDS011;63257;55.082;38.772;2022-12-24T04:51:19;32.67;;;12.98;;
71947;SDS011;63257;55.082;38.772;2022-12-24T04:53:45;34.37;;;13.27;;
71947;SDS011;63257;55.082;38.772;2022-12-24T04:56:12;30.58;;;12.35;;
71947;SDS011;63257;55.082;38.772;2022-12-24T04:58:46;31.58;;;13.55;;
71947;SDS011;63257;55.082;38.772;2022-12-24T05:01:17;32.88;;;13.27;;
71947;SDS011;63257;55.082;38.772;2022-12-24T05:03:48;33.40;;;12.73;;
71947;SDS011;63257;55.082;38.772;2022-12-24T05:06:17;32.08;;;12.82;;
71947;SDS011;63257;55.082;38.772;2022-12-24T05:08:44;33.42;;;14.02;;
71947;SDS011;63257;55.082;38.772;2022-12-24T05:11:10;33.63;;;13.43;;
71947;SDS011;63257;55.082;38.772;2022-12-24T05:13:44;31.33;;;12.50;;
71947;SDS011;63257;55.082;38.772;2022-12-24T05:16:10;35.95;;;14.65;;
71947;SDS011;63257;55.082;38.772;2022-12-24T05:18:37;32.67;;;13.17;;
71947;SDS011;63257;55.082;38.772;2022-12-24T05:21:06;36.28;;;13.40;;
71947;SDS011;63257;55.082;38.772;2022-12-24T05:23:34;35.58;;;14.73;;
71947;SDS011;63257;55.082;38.772;2022-12-24T05:26:22;39.93;;;14.27;;
71947;SDS011;63257;55.082;38.772;2022-12-24T05:29:04;39.38;;;14.55;;
71947;SDS011;63257;55.082;38.772;2022-12-24T05:31:31;37.33;;;14.63;;
71947;SDS011;63257;55.082;38.772;2022-12-24T05:33:58;45.17;;;15.90;;
71947;SDS011;63257;55.082;38.772;2022-12-24T05:36:25;46.20;;;16.48;;
71947;SDS011;63257;55.082;38.772;2022-12-24T05:38:51;43.70;;;16.42;;
71947;SDS011;63257;55.082;38.772;2022-12-24T05:41:17;48.70;;;16.60;;
71947;SDS011;63257;55.082;38.772;2022-12-24T05:43:43;47.75;;;15.95;;
71947;SDS011;63257;55.082;38.772;2022-12-24T05:46:10;48.00;;;16.52;;
71947;SDS011;63257;55.082;38.772;2022-12-24T05:48:38;41.93;;;16.23;;
71947;SDS011;63257;55.082;38.772;2022-12-24T05:51:05;45.00;;;17.60;;
71947;SDS011;63257;55.082;38.772;2022-12-24T05:53:32;45.72;;;16.48;;
71947;SDS011;63257;55.082;38.772;2022-12-24T05:56:03;46.05;;;16.70;;
71947;SDS011;63257;55.082;38.772;2022-12-24T05:58:30;46.45;;;17.15;;
71947;SDS011;63257;55.082;38.772;2022-12-24T06:00:56;47.92;;;16.00;;
71947;SDS011;63257;55.082;38.772;2022-12-24T06:03:22;44.88;;;16.45;;
71947;SDS011;63257;55.082;38.772;2022-12-24T06:05:48;40.80;;;15.37;;
71947;SDS011;63257;55.082;38.772;2022-12-24T06:08:21;49.78;;;17.23;;
71947;SDS011;63257;55.082;38.772;2022-12-24T06:10:52;44.07;;;16.63;;
71947;SDS011;63257;55.082;38.772;2022-12-24T06:13:19;42.10;;;16.05;;
71947;SDS011;63257;55.082;38.772;2022-12-24T06:15:45;49.00;;;16.58;;
71947;SDS011;63257;55.082;38.772;2022-12-24T06:18:11;40.80;;;15.27;;
71947;SDS011;63257;55.082;38.772;2022-12-24T06:20:38;45.03;;;16.88;;
71947;SDS011;63257;55.082;38.772;2022-12-24T06:23:03;42.65;;;16.05;;
71947;SDS011;63257;55.082;38.772;2022-12-24T06:25:30;40.57;;;15.23;;
71947;SDS011;63257;55.082;38.772;2022-12-24T06:27:55;43.80;;;15.10;;
71947;SDS011;63257;55.082;38.772;2022-12-24T06:30:21;37.57;;;14.80;;
71947;SDS011;63257;55.082;38.772;2022-12-24T06:32:47;42.50;;;15.70;;
71947;SDS011;63257;55.082;38.772;2022-12-24T06:35:13;40.70;;;15.73;;
71947;SDS011;63257;55.082;38.772;2022-12-24T06:37:38;44.47;;;16.25;;
71947;SDS011;63257;55.082;38.772;2022-12-24T06:44:16;41.78;;;16.00;;
71947;SDS011;63257;55.082;38.772;2022-12-24T06:46:42;47.67;;;16.85;;
71947;SDS011;63257;55.082;38.772;2022-12-24T06:49:08;48.43;;;17.67;;
71947;SDS011;63257;55.082;38.772;2022-12-24T06:51:34;59.38;;;18.90;;
71947;SDS011;63257;55.082;38.772;2022-12-24T06:54:00;52.93;;;18.07;;
71947;SDS011;63257;55.082;38.772;2022-12-24T06:56:26;57.58;;;19.90;;
71947;SDS011;63257;55.082;38.772;2022-12-24T06:58:52;56.40;;;18.80;;
71947;SDS011;63257;55.082;38.772;2022-12-24T07:01:18;53.67;;;18.35;;
71947;SDS011;63257;55.082;38.772;2022-12-24T07:03:45;49.33;;;17.30;;
71947;SDS011;63257;55.082;38.772;2022-12-24T07:06:17;47.90;;;18.00;;
71947;SDS011;63257;55.082;38.772;2022-12-24T07:08:49;52.92;;;18.27;;
71947;SDS011;63257;55.082;38.772;2022-12-24T07:11:16;49.35;;;16.55;;
71947;SDS011;63257;55.082;38.772;2022-12-24T07:13:42;46.83;;;16.70;;
71947;SDS011;63257;55.082;38.772;2022-12-24T07:16:07;52.22;;;17.45;;
71947;SDS011;63257;55.082;38.772;2022-12-24T07:18:34;49.03;;;16.92;;
71947;SDS011;63257;55.082;38.772;2022-12-24T07:21:01;54.22;;;17.65;;
71947;SDS011;63257;55.082;38.772;2022-12-24T07:23:28;52.25;;;17.50;;
71947;SDS011;63257;55.082;38.772;2022-12-24T07:25:58;52.80;;;17.00;;
71947;SDS011;63257;55.082;38.772;2022-12-24T07:28:28;55.25;;;17.02;;
71947;SDS011;63257;55.082;38.772;2022-12-24T07:30:55;55.90;;;17.92;;
71947;SDS011;63257;55.082;38.772;2022-12-24T07:33:22;53.72;;;17.63;;
71947;SDS011;63257;55.082;38.772;2022-12-24T07:35:48;47.03;;;17.55;;
71947;SDS011;63257;55.082;38.772;2022-12-24T07:38:21;55.88;;;18.05;;
71947;SDS011;63257;55.082;38.772;2022-12-24T07:40:47;46.50;;;16.48;;
71947;SDS011;63257;55.082;38.772;2022-12-24T07:43:13;51.93;;;16.63;;
71947;SDS011;63257;55.082;38.772;2022-12-24T07:45:39;53.15;;;17.95;;
71947;SDS011;63257;55.082;38.772;2022-12-24T07:48:05;49.20;;;16.50;;
71947;SDS011;63257;55.082;38.772;2022-12-24T07:50:31;54.55;;;18.33;;
71947;SDS011;63257;55.082;38.772;2022-12-24T07:52:57;48.80;;;17.37;;
71947;SDS011;63257;55.082;38.772;2022-12-24T07:55:23;52.13;;;16.70;;
71947;SDS011;63257;55.082;38.772;2022-12-24T07:57:49;56.58;;;18.58;;
71947;SDS011;63257;55.082;38.772;2022-12-24T08:00:15;53.90;;;18.13;;
71947;SDS011;63257;55.082;38.772;2022-12-24T08:02:42;49.65;;;16.70;;
71947;SDS011;63257;55.082;38.772;2022-12-24T08:05:07;57.73;;;17.77;;
71947;SDS011;63257;55.082;38.772;2022-12-24T08:07:34;55.60;;;17.55;;
71947;SDS011;63257;55.082;38.772;2022-12-24T08:09:59;56.58;;;17.98;;
71947;SDS011;63257;55.082;38.772;2022-12-24T08:12:25;59.10;;;19.27;;
71947;SDS011;63257;55.082;38.772;2022-12-24T08:14:52;59.80;;;19.58;;
71947;SDS011;63257;55.082;38.772;2022-12-24T08:17:17;62.63;;;18.20;;
71947;SDS011;63257;55.082;38.772;2022-12-24T08:19:44;61.92;;;19.30;;
71947;SDS011;63257;55.082;38.772;2022-12-24T08:22:09;56.53;;;18.67;;
71947;SDS011;63257;55.082;38.772;2022-12-24T08:24:35;58.17;;;18.23;;
71947;SDS011;63257;55.082;38.772;2022-12-24T08:27:02;58.92;;;20.20;;
71947;SDS011;63257;55.082;38.772;2022-12-24T08:29:28;60.15;;;19.30;;
71947;SDS011;63257;55.082;38.772;2022-12-24T08:31:54;56.13;;;17.90;;
71947;SDS011;63257;55.082;38.772;2022-12-24T08:34:19;53.63;;;18.80;;
71947;SDS011;63257;55.082;38.772;2022-12-24T08:36:46;59.73;;;19.37;;
71947;SDS011;63257;55.082;38.772;2022-12-24T08:39:11;60.92;;;20.02;;
71947;SDS011;63257;55.082;38.772;2022-12-24T08:41:38;61.03;;;20.85;;
71947;SDS011;63257;55.082;38.772;2022-12-24T08:44:04;66.53;;;20.83;;
71947;SDS011;63257;55.082;38.772;2022-12-24T08:46:29;60.03;;;19.42;;
71947;SDS011;63257;55.082;38.772;2022-12-24T08:48:55;63.77;;;20.83;;
71947;SDS011;63257;55.082;38.772;2022-12-24T08:51:21;56.53;;;19.50;;
71947;SDS011;63257;55.082;38.772;2022-12-24T08:53:47;59.30;;;18.93;;
71947;SDS011;63257;55.082;38.772;2022-12-24T08:56:13;56.40;;;18.20;;
71947;SDS011;63257;55.082;38.772;2022-12-24T08:58:39;55.92;;;19.50;;
71947;SDS011;63257;55.082;38.772;2022-12-24T09:01:09;59.03;;;19.40;;
71947;SDS011;63257;55.082;38.772;2022-12-24T09:03:37;58.33;;;18.37;;
71947;SDS011;63257;55.082;38.772;2022-12-24T09:06:03;56.35;;;18.55;;
71947;SDS011;63257;55.082;38.772;2022-12-24T09:08:30;55.25;;;19.05;;
71947;SDS011;63257;55.082;38.772;2022-12-24T09:11:01;49.77;;;17.83;;
71947;SDS011;63257;55.082;38.772;2022-12-24T09:13:29;50.70;;;18.52;;
71947;SDS011;63257;55.082;38.772;2022-12-24T09:15:55;66.35;;;19.95;;
71947;SDS011;63257;55.082;38.772;2022-12-24T09:18:22;54.03;;;19.03;;
71947;SDS011;63257;55.082;38.772;2022-12-24T09:20:49;54.15;;;19.45;;
71947;SDS011;63257;55.082;38.772;2022-12-24T09:23:15;60.60;;;18.92;;
71947;SDS011;63257;55.082;38.772;2022-12-24T09:25:41;53.63;;;19.02;;
71947;SDS011;63257;55.082;38.772;2022-12-24T09:28:08;55.88;;;18.70;;
71947;SDS011;63257;55.082;38.772;2022-12-24T09:30:35;56.77;;;18.73;;
71947;SDS011;63257;55.082;38.772;2022-12-24T09:33:02;53.53;;;17.80;;
71947;SDS011;63257;55.082;38.772;2022-12-24T09:35:29;53.75;;;18.35;;
71947;SDS011;63257;55.082;38.772;2022-12-24T09:37:55;55.90;;;19.10;;
71947;SDS011;63257;55.082;38.772;2022-12-24T09:40:39;58.97;;;19.10;;
71947;SDS011;63257;55.082;38.772;2022-12-24T09:43:10;53.65;;;18.92;;
71947;SDS011;63257;55.082;38.772;2022-12-24T09:45:41;57.00;;;18.75;;
71947;SDS011;63257;55.082;38.772;2022-12-24T09:48:16;54.27;;;19.03;;
71947;SDS011;63257;55.082;38.772;2022-12-24T09:50:53;48.30;;;18.70;;
71947;SDS011;63257;55.082;38.772;2022-12-24T09:56:00;55.90;;;18.47;;
71947;SDS011;63257;55.082;38.772;2022-12-24T09:58:34;59.40;;;19.92;;
71947;SDS011;63257;55.082;38.772;2022-12-24T10:01:04;57.85;;;20.13;;
71947;SDS011;63257;55.082;38.772;2022-12-24T10:03:30;55.63;;;19.17;;
71947;SDS011;63257;55.082;38.772;2022-12-24T10:09:13;58.13;;;20.42;;
71947;SDS011;63257;55.082;38.772;2022-12-24T10:26:26;53.15;;;19.95;;
71947;SDS011;63257;55.082;38.772;2022-12-24T10:28:57;52.35;;;19.92;;
71947;SDS011;63257;55.082;38.772;2022-12-24T10:31:38;55.70;;;20.42;;
71947;SDS011;63257;55.082;38.772;2022-12-24T10:34:13;56.42;;;21.13;;
71947;SDS011;63257;55.082;38.772;2022-12-24T10:36:45;56.22;;;20.58;;
71947;SDS011;63257;55.082;38.772;2022-12-24T10:39:21;51.95;;;19.27;;
71947;SDS011;63257;55.082;38.772;2022-12-24T10:41:51;53.00;;;19.57;;
71947;SDS011;63257;55.082;38.772;2022-12-24T10:44:23;55.78;;;20.73;;
71947;SDS011;63257;55.082;38.772;2022-12-24T10:46:51;56.38;;;20.08;;
71947;SDS011;63257;55.082;38.772;2022-12-24T10:49:19;59.03;;;20.03;;
71947;SDS011;63257;55.082;38.772;2022-12-24T10:51:56;57.05;;;20.73;;
71947;SDS011;63257;55.082;38.772;2022-12-24T10:54:31;53.15;;;19.77;;
71947;SDS011;63257;55.082;38.772;2022-12-24T10:57:03;52.00;;;20.17;;
71947;SDS011;63257;55.082;38.772;2022-12-24T10:59:53;49.83;;;18.70;;
71947;SDS011;63257;55.082;38.772;2022-12-24T11:02:28;50.70;;;19.52;;
71947;SDS011;63257;55.082;38.772;2022-12-24T11:05:00;54.75;;;19.50;;
71947;SDS011;63257;55.082;38.772;2022-12-24T11:07:29;46.27;;;19.43;;
71947;SDS011;63257;55.082;38.772;2022-12-24T11:10:00;51.33;;;17.90;;
71947;SDS011;63257;55.082;38.772;2022-12-24T11:12:47;51.15;;;18.52;;
71947;SDS011;63257;55.082;38.772;2022-12-24T11:15:15;47.97;;;18.43;;
71947;SDS011;63257;55.082;38.772;2022-12-24T11:20:23;43.50;;;17.67;;
71947;SDS011;63257;55.082;38.772;2022-12-24T11:22:55;47.30;;;17.88;;
71947;SDS011;63257;55.082;38.772;2022-12-24T11:27:52;51.80;;;18.95;;
71947;SDS011;63257;55.082;38.772;2022-12-24T11:30:20;49.25;;;17.63;;
71947;SDS011;63257;55.082;38.772;2022-12-24T11:35:30;50.28;;;17.70;;
71947;SDS011;63257;55.082;38.772;2022-12-24T11:43:04;55.20;;;18.75;;
71947;SDS011;63257;55.082;38.772;2022-12-24T11:45:31;45.13;;;16.27;;
71947;SDS011;63257;55.082;38.772;2022-12-24T11:47:59;50.35;;;16.98;;
71947;SDS011;63257;55.082;38.772;2022-12-24T11:50:35;55.05;;;17.45;;
71947;SDS011;63257;55.082;38.772;2022-12-24T12:03:50;41.40;;;14.60;;
71947;SDS011;63257;55.082;38.772;2022-12-24T12:09:20;37.65;;;14.70;;
71947;SDS011;63257;55.082;38.772;2022-12-24T12:11:53;40.85;;;14.63;;
71947;SDS011;63257;55.082;38.772;2022-12-24T12:14:29;40.13;;;13.87;;
71947;SDS011;63257;55.082;38.772;2022-12-24T12:17:02;40.38;;;15.05;;
71947;SDS011;63257;55.082;38.772;2022-12-24T12:19:42;40.33;;;14.68;;
71947;SDS011;63257;55.082;38.772;2022-12-24T12:22:21;34.25;;;13.02;;
71947;SDS011;63257;55.082;38.772;2022-12-24T12:24:54;32.83;;;12.15;;
71947;SDS011;63257;55.082;38.772;2022-12-24T12:30:08;39.47;;;14.00;;
71947;SDS011;63257;55.082;38.772;2022-12-24T12:32:44;38.63;;;13.90;;
71947;SDS011;63257;55.082;38.772;2022-12-24T12:37:56;37.70;;;13.82;;
71947;SDS011;63257;55.082;38.772;2022-12-24T12:40:35;40.27;;;15.23;;
71947;SDS011;63257;55.082;38.772;2022-12-24T12:46:19;37.15;;;13.93;;
71947;SDS011;63257;55.082;38.772;2022-12-24T12:54:53;32.58;;;12.70;;
71947;SDS011;63257;55.082;38.772;2022-12-24T12:57:20;41.90;;;13.82;;
71947;SDS011;63257;55.082;38.772;2022-12-24T12:59:56;36.30;;;13.50;;
71947;SDS011;63257;55.082;38.772;2022-12-24T13:21:47;38.85;;;14.65;;
71947;SDS011;63257;55.082;38.772;2022-12-24T13:27:13;37.17;;;13.53;;
71947;SDS011;63257;55.082;38.772;2022-12-24T13:35:02;35.72;;;14.13;;
71947;SDS011;63257;55.082;38.772;2022-12-24T13:37:49;36.03;;;13.48;;
71947;SDS011;63257;55.082;38.772;2022-12-24T13:40:24;34.47;;;13.35;;
71947;SDS011;63257;55.082;38.772;2022-12-24T13:47:56;37.50;;;14.18;;
71947;SDS011;63257;55.082;38.772;2022-12-24T13:50:49;35.47;;;14.13;;
71947;SDS011;63257;55.082;38.772;2022-12-24T13:58:39;35.65;;;14.25;;
71947;SDS011;63257;55.082;38.772;2022-12-24T14:01:12;33.20;;;13.77;;
71947;SDS011;63257;55.082;38.772;2022-12-24T14:03:42;41.42;;;15.13;;
71947;SDS011;63257;55.082;38.772;2022-12-24T14:08:45;38.20;;;14.80;;
71947;SDS011;63257;55.082;38.772;2022-12-24T14:11:15;39.33;;;15.63;;
71947;SDS011;63257;55.082;38.772;2022-12-24T14:16:14;34.50;;;14.05;;
71947;SDS011;63257;55.082;38.772;2022-12-24T14:18:56;37.27;;;14.67;;
71947;SDS011;63257;55.082;38.772;2022-12-24T14:21:41;38.50;;;15.52;;
71947;SDS011;63257;55.082;38.772;2022-12-24T14:24:33;37.95;;;14.63;;
71947;SDS011;63257;55.082;38.772;2022-12-24T14:27:45;33.10;;;13.45;;
71947;SDS011;63257;55.082;38.772;2022-12-24T14:30:07;36.88;;;14.77;;
71947;SDS011;63257;55.082;38.772;2022-12-24T14:32:46;34.88;;;13.05;;
71947;SDS011;63257;55.082;38.772;2022-12-24T14:35:15;38.25;;;15.25;;
71947;SDS011;63257;55.082;38.772;2022-12-24T14:37:46;38.43;;;15.03;;
71947;SDS011;63257;55.082;38.772;2022-12-24T14:40:20;31.67;;;13.75;;
71947;SDS011;63257;55.082;38.772;2022-12-24T14:43:09;33.45;;;13.35;;
71947;SDS011;63257;55.082;38.772;2022-12-24T14:48:56;32.58;;;13.20;;
71947;SDS011;63257;55.082;38.772;2022-12-24T14:54:39;30.83;;;12.88;;
71947;SDS011;63257;55.082;38.772;2022-12-24T15:02:31;32.42;;;12.57;;
71947;SDS011;63257;55.082;38.772;2022-12-24T15:05:06;31.23;;;12.13;;
71947;SDS011;63257;55.082;38.772;2022-12-24T15:07:35;30.05;;;12.60;;
71947;SDS011;63257;55.082;38.772;2022-12-24T15:10:06;27.92;;;10.95;;
71947;SDS011;63257;55.082;38.772;2022-12-24T15:12:58;29.40;;;11.63;;
71947;SDS011;63257;55.082;38.772;2022-12-24T15:15:28;33.20;;;12.05;;
71947;SDS011;63257;55.082;38.772;2022-12-24T15:17:57;28.48;;;11.07;;
71947;SDS011;63257;55.082;38.772;2022-12-24T15:20:26;30.50;;;12.50;;
71947;SDS011;63257;55.082;38.772;2022-12-24T15:22:54;25.90;;;11.75;;
71947;SDS011;63257;55.082;38.772;2022-12-24T15:25:31;29.50;;;12.40;;
71947;SDS011;63257;55.082;38.772;2022-12-24T15:27:57;30.20;;;12.27;;
71947;SDS011;63257;55.082;38.772;2022-12-24T15:30:25;24.67;;;11.40;;
71947;SDS011;63257;55.082;38.772;2022-12-24T15:32:54;25.45;;;11.07;;
71947;SDS011;63257;55.082;38.772;2022-12-24T15:35:33;24.63;;;10.63;;
71947;SDS011;63257;55.082;38.772;2022-12-24T15:38:25;27.17;;;11.20;;
71947;SDS011;63257;55.082;38.772;2022-12-24T15:41:20;23.77;;;9.82;;
71947;SDS011;63257;55.082;38.772;2022-12-24T15:43:50;25.05;;;10.23;;
71947;SDS011;63257;55.082;38.772;2022-12-24T15:46:24;22.48;;;10.15;;
71947;SDS011;63257;55.082;38.772;2022-12-24T15:48:55;20.58;;;9.38;;
71947;SDS011;63257;55.082;38.772;2022-12-24T15:51:31;23.17;;;9.40;;
71947;SDS011;63257;55.082;38.772;2022-12-24T15:54:02;42.35;;;18.67;;
71947;SDS011;63257;55.082;38.772;2022-12-24T15:59:33;23.15;;;9.75;;
71947;SDS011;63257;55.082;38.772;2022-12-24T16:08:17;19.73;;;8.45;;
71947;SDS011;63257;55.082;38.772;2022-12-24T16:13:54;19.30;;;8.88;;
71947;SDS011;63257;55.082;38.772;2022-12-24T16:16:36;20.50;;;8.55;;
71947;SDS011;63257;55.082;38.772;2022-12-24T16:19:15;22.73;;;9.48;;
71947;SDS011;63257;55.082;38.772;2022-12-24T16:21:49;20.70;;;9.35;;
71947;SDS011;63257;55.082;38.772;2022-12-24T16:24:23;20.97;;;8.83;;
71947;SDS011;63257;55.082;38.772;2022-12-24T16:26:54;19.10;;;7.95;;
71947;SDS011;63257;55.082;38.772;2022-12-24T16:29:23;18.65;;;8.57;;
71947;SDS011;63257;55.082;38.772;2022-12-24T16:31:51;19.03;;;8.30;;
71947;SDS011;63257;55.082;38.772;2022-12-24T16:34:23;19.98;;;8.90;;
71947;SDS011;63257;55.082;38.772;2022-12-24T16:36:56;16.70;;;7.97;;
71947;SDS011;63257;55.082;38.772;2022-12-24T16:39:26;19.90;;;9.35;;
71947;SDS011;63257;55.082;38.772;2022-12-24T16:41:57;19.45;;;8.57;;
71947;SDS011;63257;55.082;38.772;2022-12-24T16:44:48;16.95;;;8.30;;
71947;SDS011;63257;55.082;38.772;2022-12-24T16:47:24;19.30;;;8.93;;
71947;SDS011;63257;55.082;38.772;2022-12-24T16:49:58;17.97;;;8.77;;
71947;SDS011;63257;55.082;38.772;2022-12-24T16:52:27;19.23;;;8.70;;
71947;SDS011;63257;55.082;38.772;2022-12-24T16:54:55;21.02;;;9.60;;
71947;SDS011;63257;55.082;38.772;2022-12-24T16:57:23;30.50;;;11.60;;
71947;SDS011;63257;55.082;38.772;2022-12-24T16:59:58;32.55;;;11.65;;
71947;SDS011;63257;55.082;38.772;2022-12-24T17:02:24;34.65;;;12.27;;
71947;SDS011;63257;55.082;38.772;2022-12-24T17:04:50;36.65;;;13.80;;
71947;SDS011;63257;55.082;38.772;2022-12-24T17:07:18;36.45;;;15.15;;
71947;SDS011;63257;55.082;38.772;2022-12-24T17:09:47;32.17;;;12.75;;
71947;SDS011;63257;55.082;38.772;2022-12-24T17:12:13;32.13;;;13.00;;
71947;SDS011;63257;55.082;38.772;2022-12-24T17:14:40;30.87;;;12.23;;